sensor_id;sensor_type;location;lat;lon;timestamp;pressure;altitude;pressure_sealevel;temperature;humidity
9325;BME280;4701;51.566;6.776;2023-03-20T09:58:24;101669.41;;;9.40;70.38
9325;BME280;4701;51.566;6.776;2023-03-20T10:01:30;101672.56;;;9.37;69.90
9325;BME280;4701;51.566;6.776;2023-03-20T10:04:33;101667.72;;;9.28;70.87
9325;BME280;4701;51.566;6.776;2023-03-20T10:07:36;101674.56;;;9.19;71.03
9325;BME280;4701;51.566;6.776;2023-03-20T10:10:46;101678.47;;;9.11;71.06
9325;BME280;4701;51.566;6.776;2023-03-20T10:14:17;101672.06;;;9.05;71.21
9325;BME280;4701;51.566;6.776;2023-03-20T10:17:32;101667.34;;;9.01;70.69
9325;BME280;4701;51.566;6.776;2023-03-20T10:20:42;101659.44;;;8.99;71.01
9325;BME280;4701;51.566;6.776;2023-03-20T10:23:52;101653.16;;;8.99;70.80
9325;BME280;4701;51.566;6.776;2023-03-20T10:27:00;101666.97;;;8.97;70.43
9325;BME280;4701;51.566;6.776;2023-03-20T10:30:19;101662.38;;;8.98;70.18
9325;BME280;4701;51.566;6.776;2023-03-20T10:33:34;101671.13;;;9.00;70.20
9325;BME280;4701;51.566;6.776;2023-03-20T10:36:51;101659.19;;;9.01;70.66
9325;BME280;4701;51.566;6.776;2023-03-20T10:40:04;101661.66;;;9.02;69.84
9325;BME280;4701;51.566;6.776;2023-03-20T10:43:17;101680.00;;;9.07;69.68
9325;BME280;4701;51.566;6.776;2023-03-20T10:46:25;101662.41;;;9.09;70.05
9325;BME280;4701;51.566;6.776;2023-03-20T10:49:30;101651.25;;;9.11;69.33
9325;BME280;4701;51.566;6.776;2023-03-20T10:52:39;101650.56;;;9.16;68.82
9325;BME280;4701;51.566;6.776;2023-03-20T10:55:42;101658.50;;;9.17;68.85
9325;BME280;4701;51.566;6.776;2023-03-20T10:58:46;101650.91;;;9.19;68.75
9325;BME280;4701;51.566;6.776;2023-03-20T11:01:51;101658.25;;;9.19;68.50
9325;BME280;4701;51.566;6.776;2023-03-20T11:04:53;101649.63;;;9.22;69.03
9325;BME280;4701;51.566;6.776;2023-03-20T11:08:01;101660.28;;;9.23;69.25
9325;BME280;4701;51.566;6.776;2023-03-20T11:11:07;101659.56;;;9.28;69.70
9325;BME280;4701;51.566;6.776;2023-03-20T11:14:16;101657.09;;;9.26;70.50
9325;BME280;4701;51.566;6.776;2023-03-20T11:17:20;101639.94;;;9.26;69.74
9325;BME280;4701;51.566;6.776;2023-03-20T11:20:23;101647.28;;;9.25;70.20
9325;BME280;4701;51.566;6.776;2023-03-20T11:23:27;101657.94;;;9.27;69.68
9325;BME280;4701;51.566;6.776;2023-03-20T11:26:34;101651.41;;;9.28;69.56
9325;BME280;4701;51.566;6.776;2023-03-20T11:29:37;101648.66;;;9.28;69.54
9325;BME280;4701;51.566;6.776;2023-03-20T11:32:45;101647.38;;;9.30;69.26
9325;BME280;4701;51.566;6.776;2023-03-20T11:35:52;101656.59;;;9.29;69.36
9325;BME280;4701;51.566;6.776;2023-03-20T11:38:58;101644.44;;;9.32;69.47
9325;BME280;4701;51.566;6.776;2023-03-20T11:42:03;101645.25;;;9.32;68.65
9325;BME280;4701;51.566;6.776;2023-03-20T11:45:14;101641.09;;;9.30;68.57
9325;BME280;4701;51.566;6.776;2023-03-20T11:48:20;101649.50;;;9.28;68.34
9325;BME280;4701;51.566;6.776;2023-03-20T11:51:22;101645.13;;;9.27;68.51
9325;BME280;4701;51.566;6.776;2023-03-20T11:54:24;101635.56;;;9.25;68.58
9325;BME280;4701;51.566;6.776;2023-03-20T11:57:33;101641.84;;;9.25;69.05
9325;BME280;4701;51.566;6.776;2023-03-20T12:00:37;101637.69;;;9.23;69.55
9325;BME280;4701;51.566;6.776;2023-03-20T12:03:44;101638.50;;;9.23;69.13
9325;BME280;4701;51.566;6.776;2023-03-20T12:06:51;101638.75;;;9.22;69.90
9325;BME280;4701;51.566;6.776;2023-03-20T12:09:56;101647.72;;;9.22;70.24
9325;BME280;4701;51.566;6.776;2023-03-20T12:13:01;101629.53;;;9.23;70.91
9325;BME280;4701;51.566;6.776;2023-03-20T12:16:05;101630.34;;;9.23;70.48
9325;BME280;4701;51.566;6.776;2023-03-20T12:19:16;101634.97;;;9.23;70.86
9325;BME280;4701;51.566;6.776;2023-03-20T12:22:22;101632.25;;;9.23;71.23
9325;BME280;4701;51.566;6.776;2023-03-20T12:25:26;101618.41;;;9.24;71.32
9325;BME280;4701;51.566;6.776;2023-03-20T12:28:35;101620.31;;;9.24;71.68
9325;BME280;4701;51.566;6.776;2023-03-20T12:31:41;101628.47;;;9.24;71.94
9325;BME280;4701;51.566;6.776;2023-03-20T12:34:49;101614.84;;;9.24;72.78
9325;BME280;4701;51.566;6.776;2023-03-20T12:37:53;101613.81;;;9.25;72.96
9325;BME280;4701;51.566;6.776;2023-03-20T12:41:00;101606.25;;;9.27;72.99
9325;BME280;4701;51.566;6.776;2023-03-20T12:44:30;101602.44;;;9.28;73.28
9325;BME280;4701;51.566;6.776;2023-03-20T12:47:50;101613.06;;;9.29;73.56
9325;BME280;4701;51.566;6.776;2023-03-20T12:51:02;101598.06;;;9.27;73.37
9325;BME280;4701;51.566;6.776;2023-03-20T12:54:15;101580.66;;;9.28;73.56
9325;BME280;4701;51.566;6.776;2023-03-20T12:57:23;101588.59;;;9.29;74.54
9325;BME280;4701;51.566;6.776;2023-03-20T13:00:33;101568.72;;;9.29;73.73
9325;BME280;4701;51.566;6.776;2023-03-20T13:04:02;101580.44;;;9.29;73.83
9325;BME280;4701;51.566;6.776;2023-03-20T13:07:16;101575.81;;;9.30;74.36
9325;BME280;4701;51.566;6.776;2023-03-20T13:10:21;101580.19;;;9.31;73.87
9325;BME280;4701;51.566;6.776;2023-03-20T13:13:29;101576.41;;;9.32;74.26
9325;BME280;4701;51.566;6.776;2023-03-20T13:16:40;101578.91;;;9.33;74.84
9325;BME280;4701;51.566;6.776;2023-03-20T13:19:49;101566.97;;;9.34;74.51
9325;BME280;4701;51.566;6.776;2023-03-20T13:23:04;101572.97;;;9.36;75.18
9325;BME280;4701;51.566;6.776;2023-03-20T13:26:21;101569.19;;;9.37;75.57
9325;BME280;4701;51.566;6.776;2023-03-20T13:29:30;101556.41;;;9.38;75.02
9325;BME280;4701;51.566;6.776;2023-03-20T13:32:47;101561.84;;;9.38;74.83
9325;BME280;4701;51.566;6.776;2023-03-20T13:35:57;101565.63;;;9.37;74.43
9325;BME280;4701;51.566;6.776;2023-03-20T13:39:10;101568.13;;;9.38;75.30
9325;BME280;4701;51.566;6.776;2023-03-20T13:42:18;101573.34;;;9.40;74.01
9325;BME280;4701;51.566;6.776;2023-03-20T13:45:28;101572.50;;;9.39;74.56
9325;BME280;4701;51.566;6.776;2023-03-20T13:48:34;101571.66;;;9.39;74.08
9325;BME280;4701;51.566;6.776;2023-03-20T13:51:41;101565.16;;;9.40;73.80
9325;BME280;4701;51.566;6.776;2023-03-20T13:55:02;101552.16;;;9.42;74.69
9325;BME280;4701;51.566;6.776;2023-03-20T13:58:22;101552.75;;;9.44;73.95
9325;BME280;4701;51.566;6.776;2023-03-20T14:01:37;101550.03;;;9.44;74.41
9325;BME280;4701;51.566;6.776;2023-03-20T14:04:42;101541.59;;;9.45;74.42
9325;BME280;4701;51.566;6.776;2023-03-20T14:07:46;101545.50;;;9.49;74.86
9325;BME280;4701;51.566;6.776;2023-03-20T14:10:55;101543.63;;;9.50;74.97
9325;BME280;4701;51.566;6.776;2023-03-20T14:14:09;101545.03;;;9.53;75.03
9325;BME280;4701;51.566;6.776;2023-03-20T14:17:18;101536.63;;;9.54;74.85
9325;BME280;4701;51.566;6.776;2023-03-20T14:20:27;101522.78;;;9.56;74.16
9325;BME280;4701;51.566;6.776;2023-03-20T14:23:35;101526.31;;;9.56;74.35
9325;BME280;4701;51.566;6.776;2023-03-20T14:26:39;101521.72;;;9.57;74.37
9325;BME280;4701;51.566;6.776;2023-03-20T14:29:42;101525.25;;;9.57;73.86
9325;BME280;4701;51.566;6.776;2023-03-20T14:32:52;101532.38;;;9.58;74.02
9325;BME280;4701;51.566;6.776;2023-03-20T14:36:29;101529.41;;;9.60;74.43
9325;BME280;4701;51.566;6.776;2023-03-20T14:39:41;101522.63;;;9.62;73.86
9325;BME280;4701;51.566;6.776;2023-03-20T14:42:50;101507.97;;;9.63;74.42
9325;BME280;4701;51.566;6.776;2023-03-20T14:45:57;101526.78;;;9.65;74.24
9325;BME280;4701;51.566;6.776;2023-03-20T14:49:18;101517.31;;;9.67;74.36
9325;BME280;4701;51.566;6.776;2023-03-20T14:52:32;101508.06;;;9.68;74.48
9325;BME280;4701;51.566;6.776;2023-03-20T14:55:49;101508.63;;;9.70;74.70
9325;BME280;4701;51.566;6.776;2023-03-20T14:58:58;101500.22;;;9.72;75.01
9325;BME280;4701;51.566;6.776;2023-03-20T15:02:01;101498.34;;;9.72;75.53
9325;BME280;4701;51.566;6.776;2023-03-20T15:05:04;101498.09;;;9.74;75.27
9325;BME280;4701;51.566;6.776;2023-03-20T15:08:07;101490.53;;;9.76;76.04
9325;BME280;4701;51.566;6.776;2023-03-20T15:11:12;101486.97;;;9.75;75.92
9325;BME280;4701;51.566;6.776;2023-03-20T15:14:20;101488.63;;;9.76;76.02
9325;BME280;4701;51.566;6.776;2023-03-20T15:17:24;101474.19;;;9.76;75.97
9325;BME280;4701;51.566;6.776;2023-03-20T15:20:27;101475.25;;;9.75;76.22
9325;BME280;4701;51.566;6.776;2023-03-20T15:23:28;101475.25;;;9.75;76.74
9325;BME280;4701;51.566;6.776;2023-03-20T15:26:32;101468.75;;;9.76;76.84
9325;BME280;4701;51.566;6.776;2023-03-20T15:29:36;101479.63;;;9.76;77.10
9325;BME280;4701;51.566;6.776;2023-03-20T15:32:39;101482.34;;;9.76;77.25
9325;BME280;4701;51.566;6.776;2023-03-20T15:35:42;101471.72;;;9.74;77.93
9325;BME280;4701;51.566;6.776;2023-03-20T15:38:45;101468.16;;;9.74;78.05
9325;BME280;4701;51.566;6.776;2023-03-20T15:41:50;101461.88;;;9.73;77.54
9325;BME280;4701;51.566;6.776;2023-03-20T15:44:54;101461.88;;;9.73;76.93
9325;BME280;4701;51.566;6.776;2023-03-20T15:48:01;101456.91;;;9.70;76.95
9325;BME280;4701;51.566;6.776;2023-03-20T15:51:05;101457.19;;;9.69;76.54
9325;BME280;4701;51.566;6.776;2023-03-20T15:54:09;101452.81;;;9.68;76.59
9325;BME280;4701;51.566;6.776;2023-03-20T15:57:18;101460.16;;;9.67;76.54
9325;BME280;4701;51.566;6.776;2023-03-20T16:00:26;101451.97;;;9.67;77.28
9325;BME280;4701;51.566;6.776;2023-03-20T16:03:29;101462.03;;;9.67;77.65
9325;BME280;4701;51.566;6.776;2023-03-20T16:06:32;101462.63;;;9.69;77.22
9325;BME280;4701;51.566;6.776;2023-03-20T16:09:41;101457.41;;;9.67;77.01
9325;BME280;4701;51.566;6.776;2023-03-20T16:12:46;101453.03;;;9.66;76.98
9325;BME280;4701;51.566;6.776;2023-03-20T16:15:50;101463.09;;;9.66;77.41
9325;BME280;4701;51.566;6.776;2023-03-20T16:18:53;101459.56;;;9.65;78.06
9325;BME280;4701;51.566;6.776;2023-03-20T16:21:57;101466.06;;;9.64;77.91
9325;BME280;4701;51.566;6.776;2023-03-20T16:25:01;101461.69;;;9.63;78.11
9325;BME280;4701;51.566;6.776;2023-03-20T16:28:04;101467.38;;;9.62;78.33
9325;BME280;4701;51.566;6.776;2023-03-20T16:31:12;101465.75;;;9.61;78.69
9325;BME280;4701;51.566;6.776;2023-03-20T16:34:17;101465.16;;;9.59;78.82
9325;BME280;4701;51.566;6.776;2023-03-20T16:37:23;101469.75;;;9.58;79.13
9325;BME280;4701;51.566;6.776;2023-03-20T16:40:30;101466.44;;;9.56;79.25
9325;BME280;4701;51.566;6.776;2023-03-20T16:43:37;101467.50;;;9.55;79.68
9325;BME280;4701;51.566;6.776;2023-03-20T16:46:56;101456.88;;;9.54;79.93
9325;BME280;4701;51.566;6.776;2023-03-20T16:50:16;101460.91;;;9.51;79.89
9325;BME280;4701;51.566;6.776;2023-03-20T16:53:18;101460.31;;;9.49;80.07
9325;BME280;4701;51.566;6.776;2023-03-20T16:56:24;101456.19;;;9.46;80.66
9325;BME280;4701;51.566;6.776;2023-03-20T16:59:26;101459.97;;;9.45;80.17
9325;BME280;4701;51.566;6.776;2023-03-20T17:02:35;101455.59;;;9.44;80.59
9325;BME280;4701;51.566;6.776;2023-03-20T17:05:55;101457.53;;;9.44;80.57
9325;BME280;4701;51.566;6.776;2023-03-20T17:09:00;101453.38;;;9.41;81.12
9325;BME280;4701;51.566;6.776;2023-03-20T17:12:05;101460.72;;;9.41;81.22
9325;BME280;4701;51.566;6.776;2023-03-20T17:15:13;101450.06;;;9.39;81.14
9325;BME280;4701;51.566;6.776;2023-03-20T17:18:17;101455.50;;;9.39;81.00
9325;BME280;4701;51.566;6.776;2023-03-20T17:21:19;101454.91;;;9.37;81.03
9325;BME280;4701;51.566;6.776;2023-03-20T17:24:21;101460.34;;;9.37;80.88
9325;BME280;4701;51.566;6.776;2023-03-20T17:27:23;101470.41;;;9.37;80.24
9325;BME280;4701;51.566;6.776;2023-03-20T17:30:25;101473.13;;;9.37;80.95
9325;BME280;4701;51.566;6.776;2023-03-20T17:33:28;101472.31;;;9.36;80.58
9325;BME280;4701;51.566;6.776;2023-03-20T17:36:32;101475.84;;;9.37;80.90
9325;BME280;4701;51.566;6.776;2023-03-20T17:39:34;101465.78;;;9.37;80.77
9325;BME280;4701;51.566;6.776;2023-03-20T17:42:36;101464.97;;;9.37;80.42
9325;BME280;4701;51.566;6.776;2023-03-20T17:45:39;101471.25;;;9.37;80.20
9325;BME280;4701;51.566;6.776;2023-03-20T17:48:43;101474.78;;;9.38;80.23
9325;BME280;4701;51.566;6.776;2023-03-20T17:51:45;101472.91;;;9.38;80.33
9325;BME280;4701;51.566;6.776;2023-03-20T17:54:47;101473.97;;;9.37;79.75
9325;BME280;4701;51.566;6.776;2023-03-20T17:57:49;101472.91;;;9.38;79.82
9325;BME280;4701;51.566;6.776;2023-03-20T18:00:52;101474.56;;;9.39;80.50
9325;BME280;4701;51.566;6.776;2023-03-20T18:03:55;101480.00;;;9.39;79.60
9325;BME280;4701;51.566;6.776;2023-03-20T18:06:57;101474.31;;;9.41;80.11
9325;BME280;4701;51.566;6.776;2023-03-20T18:09:59;101487.91;;;9.41;79.76
9325;BME280;4701;51.566;6.776;2023-03-20T18:13:01;101474.31;;;9.41;79.62
9325;BME280;4701;51.566;6.776;2023-03-20T18:16:04;101465.09;;;9.42;80.11
9325;BME280;4701;51.566;6.776;2023-03-20T18:19:10;101474.91;;;9.43;79.81
9325;BME280;4701;51.566;6.776;2023-03-20T18:22:15;101465.69;;;9.44;79.89
9325;BME280;4701;51.566;6.776;2023-03-20T18:25:17;101464.84;;;9.43;80.16
9325;BME280;4701;51.566;6.776;2023-03-20T18:28:18;101471.69;;;9.46;80.17
9325;BME280;4701;51.566;6.776;2023-03-20T18:31:22;101465.41;;;9.45;80.21
9325;BME280;4701;51.566;6.776;2023-03-20T18:34:25;101470.63;;;9.47;80.63
9325;BME280;4701;51.566;6.776;2023-03-20T18:37:27;101462.22;;;9.48;80.62
9325;BME280;4701;51.566;6.776;2023-03-20T18:40:31;101464.94;;;9.48;80.74
9325;BME280;4701;51.566;6.776;2023-03-20T18:43:33;101473.94;;;9.49;80.83
9325;BME280;4701;51.566;6.776;2023-03-20T18:46:35;101463.88;;;9.49;80.50
9325;BME280;4701;51.566;6.776;2023-03-20T18:49:38;101469.31;;;9.49;80.27
9325;BME280;4701;51.566;6.776;2023-03-20T18:52:43;101462.81;;;9.51;80.74
9325;BME280;4701;51.566;6.776;2023-03-20T18:55:45;101465.53;;;9.51;80.59
9325;BME280;4701;51.566;6.776;2023-03-20T18:58:47;101465.31;;;9.52;80.77
9325;BME280;4701;51.566;6.776;2023-03-20T19:01:48;101464.19;;;9.53;80.43
9325;BME280;4701;51.566;6.776;2023-03-20T19:04:53;101461.47;;;9.53;80.59
9325;BME280;4701;51.566;6.776;2023-03-20T19:07:55;101465.03;;;9.54;80.19
9325;BME280;4701;51.566;6.776;2023-03-20T19:10:59;101458.75;;;9.53;80.95
9325;BME280;4701;51.566;6.776;2023-03-20T19:14:01;101462.31;;;9.54;80.84
9325;BME280;4701;51.566;6.776;2023-03-20T19:17:03;101454.16;;;9.54;80.30
9325;BME280;4701;51.566;6.776;2023-03-20T19:20:33;101460.41;;;9.54;80.39
9325;BME280;4701;51.566;6.776;2023-03-20T19:23:44;101463.97;;;9.55;80.48
9325;BME280;4701;51.566;6.776;2023-03-20T19:26:48;101458.28;;;9.56;80.76
9325;BME280;4701;51.566;6.776;2023-03-20T19:30:13;101460.19;;;9.56;80.56
9325;BME280;4701;51.566;6.776;2023-03-20T19:33:29;101453.91;;;9.55;81.07
9325;BME280;4701;51.566;6.776;2023-03-20T19:36:44;101448.47;;;9.55;80.44
9325;BME280;4701;51.566;6.776;2023-03-20T19:39:50;101446.56;;;9.56;80.49
9325;BME280;4701;51.566;6.776;2023-03-20T19:42:55;101442.78;;;9.57;80.81
9325;BME280;4701;51.566;6.776;2023-03-20T19:45:57;101443.84;;;9.56;80.31
9325;BME280;4701;51.566;6.776;2023-03-20T19:48:59;101441.13;;;9.56;80.50
9325;BME280;4701;51.566;6.776;2023-03-20T19:52:21;101443.63;;;9.57;80.75
9325;BME280;4701;51.566;6.776;2023-03-20T19:55:38;101443.38;;;9.59;80.40
9325;BME280;4701;51.566;6.776;2023-03-20T19:58:40;101442.31;;;9.60;79.86
9325;BME280;4701;51.566;6.776;2023-03-20T20:01:42;101433.31;;;9.59;80.63
9325;BME280;4701;51.566;6.776;2023-03-20T20:04:44;101440.16;;;9.62;80.15
9325;BME280;4701;51.566;6.776;2023-03-20T20:07:47;101439.91;;;9.63;80.93
9325;BME280;4701;51.566;6.776;2023-03-20T20:10:50;101440.97;;;9.62;80.50
9325;BME280;4701;51.566;6.776;2023-03-20T20:13:53;101435.28;;;9.64;80.39
9325;BME280;4701;51.566;6.776;2023-03-20T20:16:55;101433.41;;;9.64;80.00
9325;BME280;4701;51.566;6.776;2023-03-20T20:19:57;101425.00;;;9.66;80.20
9325;BME280;4701;51.566;6.776;2023-03-20T20:23:00;101434.81;;;9.67;80.30
9325;BME280;4701;51.566;6.776;2023-03-20T20:26:02;101422.88;;;9.68;80.17
9325;BME280;4701;51.566;6.776;2023-03-20T20:29:06;101434.56;;;9.68;80.16
9325;BME280;4701;51.566;6.776;2023-03-20T20:32:09;101430.78;;;9.69;80.15
9325;BME280;4701;51.566;6.776;2023-03-20T20:35:13;101436.22;;;9.69;79.95
9325;BME280;4701;51.566;6.776;2023-03-20T20:38:16;101423.41;;;9.70;79.82
9325;BME280;4701;51.566;6.776;2023-03-20T20:41:19;101425.06;;;9.71;79.88
9325;BME280;4701;51.566;6.776;2023-03-20T20:44:21;101425.66;;;9.73;80.05
9325;BME280;4701;51.566;6.776;2023-03-20T20:47:22;101426.50;;;9.73;80.09
9325;BME280;4701;51.566;6.776;2023-03-20T20:50:26;101420.81;;;9.75;79.91
9325;BME280;4701;51.566;6.776;2023-03-20T20:53:29;101423.28;;;9.76;79.72
9325;BME280;4701;51.566;6.776;2023-03-20T20:56:31;101420.34;;;9.78;79.43
9325;BME280;4701;51.566;6.776;2023-03-20T20:59:33;101422.22;;;9.77;79.16
